sensor_id;sensor_type;location;lat;lon;timestamp;pressure;altitude;pressure_sealevel;temperature;humidity
12146;BME280;6136;47.032;15.398;2023-07-02T00:00:10;96794.84;;;18.61;nan
12146;BME280;6136;47.032;15.398;2023-07-02T00:02:40;96779.88;;;18.50;nan
12146;BME280;6136;47.032;15.398;2023-07-02T00:05:08;96792.66;;;18.56;nan
12146;BME280;6136;47.032;15.398;2023-07-02T00:07:36;96789.41;;;18.53;nan
12146;BME280;6136;47.032;15.398;2023-07-02T00:10:05;96798.31;;;18.53;nan
12146;BME280;6136;47.032;15.398;2023-07-02T00:12:34;96791.44;;;18.51;nan
12146;BME280;6136;47.032;15.398;2023-07-02T00:15:02;96797.66;;;18.51;nan
12146;BME280;6136;47.032;15.398;2023-07-02T00:17:30;96804.16;;;18.49;nan
12146;BME280;6136;47.032;15.398;2023-07-02T00:20:00;96798.13;;;18.47;nan
12146;BME280;6136;47.032;15.398;2023-07-02T00:22:35;96802.81;;;18.45;nan
12146;BME280;6136;47.032;15.398;2023-07-02T00:25:03;96799.47;;;18.43;nan
12146;BME280;6136;47.032;15.398;2023-07-02T00:27:31;96801.75;;;18.38;nan
12146;BME280;6136;47.032;15.398;2023-07-02T00:30:00;96808.31;;;18.35;nan
12146;BME280;6136;47.032;15.398;2023-07-02T00:32:28;96798.41;;;18.28;nan
12146;BME280;6136;47.032;15.398;2023-07-02T00:34:56;96798.06;;;18.22;nan
12146;BME280;6136;47.032;15.398;2023-07-02T00:37:27;96802.03;;;18.18;nan
12146;BME280;6136;47.032;15.398;2023-07-02T00:39:56;96811.09;;;18.17;nan
12146;BME280;6136;47.032;15.398;2023-07-02T00:42:24;96804.69;;;18.10;nan
12146;BME280;6136;47.032;15.398;2023-07-02T00:44:56;96807.53;;;18.09;nan
12146;BME280;6136;47.032;15.398;2023-07-02T00:47:30;96808.00;;;18.04;nan
12146;BME280;6136;47.032;15.398;2023-07-02T00:49:58;96809.34;;;18.00;nan
12146;BME280;6136;47.032;15.398;2023-07-02T00:52:29;96810.66;;;17.96;nan
12146;BME280;6136;47.032;15.398;2023-07-02T00:54:58;96813.66;;;17.93;nan
12146;BME280;6136;47.032;15.398;2023-07-02T00:57:27;96817.34;;;17.92;nan
12146;BME280;6136;47.032;15.398;2023-07-02T00:59:57;96806.91;;;17.89;nan
12146;BME280;6136;47.032;15.398;2023-07-02T01:02:27;96812.97;;;17.91;nan
12146;BME280;6136;47.032;15.398;2023-07-02T01:04:57;96808.31;;;17.93;nan
12146;BME280;6136;47.032;15.398;2023-07-02T01:07:29;96799.88;;;17.88;nan
12146;BME280;6136;47.032;15.398;2023-07-02T01:09:57;96800.88;;;17.87;nan
12146;BME280;6136;47.032;15.398;2023-07-02T01:12:26;96804.88;;;17.83;nan
12146;BME280;6136;47.032;15.398;2023-07-02T01:14:58;96802.91;;;17.85;nan
12146;BME280;6136;47.032;15.398;2023-07-02T01:17:31;96802.72;;;17.87;nan
12146;BME280;6136;47.032;15.398;2023-07-02T01:20:09;96807.56;;;17.83;nan
12146;BME280;6136;47.032;15.398;2023-07-02T01:22:38;96801.66;;;17.79;nan
12146;BME280;6136;47.032;15.398;2023-07-02T01:25:07;96799.16;;;17.78;nan
12146;BME280;6136;47.032;15.398;2023-07-02T01:27:36;96798.63;;;17.74;nan
12146;BME280;6136;47.032;15.398;2023-07-02T01:30:07;96804.34;;;17.79;nan
12146;BME280;6136;47.032;15.398;2023-07-02T01:32:37;96804.53;;;17.78;nan
12146;BME280;6136;47.032;15.398;2023-07-02T01:35:07;96797.78;;;17.74;nan
12146;BME280;6136;47.032;15.398;2023-07-02T01:37:36;96799.47;;;17.75;nan
12146;BME280;6136;47.032;15.398;2023-07-02T01:40:06;96796.78;;;17.75;nan
12146;BME280;6136;47.032;15.398;2023-07-02T01:42:35;96796.78;;;17.75;nan
12146;BME280;6136;47.032;15.398;2023-07-02T01:45:04;96791.78;;;17.80;nan
12146;BME280;6136;47.032;15.398;2023-07-02T01:47:32;96798.69;;;17.82;nan
12146;BME280;6136;47.032;15.398;2023-07-02T01:50:02;96794.53;;;17.88;nan
12146;BME280;6136;47.032;15.398;2023-07-02T01:52:32;96791.16;;;17.86;nan
12146;BME280;6136;47.032;15.398;2023-07-02T01:55:01;96789.81;;;17.82;nan
12146;BME280;6136;47.032;15.398;2023-07-02T01:57:30;96795.47;;;17.79;nan
12146;BME280;6136;47.032;15.398;2023-07-02T01:59:59;96797.47;;;17.77;nan
12146;BME280;6136;47.032;15.398;2023-07-02T02:02:27;96798.78;;;17.73;nan
12146;BME280;6136;47.032;15.398;2023-07-02T02:04:55;96793.06;;;17.68;nan
12146;BME280;6136;47.032;15.398;2023-07-02T02:07:24;96790.88;;;17.63;nan
12146;BME280;6136;47.032;15.398;2023-07-02T02:09:54;96784.09;;;17.59;nan
12146;BME280;6136;47.032;15.398;2023-07-02T02:12:23;96790.31;;;17.60;nan
12146;BME280;6136;47.032;15.398;2023-07-02T02:14:51;96796.81;;;17.57;nan
12146;BME280;6136;47.032;15.398;2023-07-02T02:17:19;96791.94;;;17.53;nan
12146;BME280;6136;47.032;15.398;2023-07-02T02:19:47;96797.22;;;17.44;nan
12146;BME280;6136;47.032;15.398;2023-07-02T02:22:15;96803.59;;;17.43;nan
12146;BME280;6136;47.032;15.398;2023-07-02T02:24:43;96797.50;;;17.33;nan
12146;BME280;6136;47.032;15.398;2023-07-02T02:27:13;96797.09;;;17.28;nan
12146;BME280;6136;47.032;15.398;2023-07-02T02:29:41;96795.75;;;17.24;nan
12146;BME280;6136;47.032;15.398;2023-07-02T02:32:10;96800.25;;;17.24;nan
12146;BME280;6136;47.032;15.398;2023-07-02T02:34:38;96803.78;;;17.24;nan
12146;BME280;6136;47.032;15.398;2023-07-02T02:37:07;96794.06;;;17.23;nan
12146;BME280;6136;47.032;15.398;2023-07-02T02:39:36;96794.97;;;17.14;nan
12146;BME280;6136;47.032;15.398;2023-07-02T02:42:04;96796.38;;;17.18;nan
12146;BME280;6136;47.032;15.398;2023-07-02T02:44:34;96800.88;;;17.18;nan
12146;BME280;6136;47.032;15.398;2023-07-02T02:47:03;96796.66;;;17.15;nan
12146;BME280;6136;47.032;15.398;2023-07-02T02:49:32;96806.69;;;17.13;nan
12146;BME280;6136;47.032;15.398;2023-07-02T02:52:00;96801.09;;;17.06;nan
12146;BME280;6136;47.032;15.398;2023-07-02T02:54:28;96795.38;;;17.01;nan
12146;BME280;6136;47.032;15.398;2023-07-02T02:56:56;96789.81;;;16.95;nan
12146;BME280;6136;47.032;15.398;2023-07-02T02:59:24;96785.38;;;16.86;nan
12146;BME280;6136;47.032;15.398;2023-07-02T03:01:54;96795.53;;;16.82;nan
12146;BME280;6136;47.032;15.398;2023-07-02T03:04:22;96801.19;;;16.79;nan
12146;BME280;6136;47.032;15.398;2023-07-02T03:06:52;96804.88;;;16.78;nan
12146;BME280;6136;47.032;15.398;2023-07-02T03:09:20;96805.00;;;16.77;nan
12146;BME280;6136;47.032;15.398;2023-07-02T03:11:48;96808.84;;;16.74;nan
12146;BME280;6136;47.032;15.398;2023-07-02T03:14:17;96805.72;;;16.79;nan
12146;BME280;6136;47.032;15.398;2023-07-02T03:16:45;96816.94;;;16.82;nan
12146;BME280;6136;47.032;15.398;2023-07-02T03:19:15;96816.34;;;16.88;nan
12146;BME280;6136;47.032;15.398;2023-07-02T03:21:43;96820.94;;;16.96;nan
12146;BME280;6136;47.032;15.398;2023-07-02T03:24:12;96824.28;;;16.98;nan
12146;BME280;6136;47.032;15.398;2023-07-02T03:26:40;96830.94;;;16.94;nan
12146;BME280;6136;47.032;15.398;2023-07-02T03:29:08;96828.75;;;16.89;nan
12146;BME280;6136;47.032;15.398;2023-07-02T03:31:37;96824.44;;;16.79;nan
12146;BME280;6136;47.032;15.398;2023-07-02T03:34:07;96833.06;;;16.73;nan
12146;BME280;6136;47.032;15.398;2023-07-02T03:36:37;96830.00;;;16.67;nan
12146;BME280;6136;47.032;15.398;2023-07-02T03:39:05;96834.06;;;16.72;nan
12146;BME280;6136;47.032;15.398;2023-07-02T03:41:36;96837.59;;;16.72;nan
12146;BME280;6136;47.032;15.398;2023-07-02T03:44:04;96835.59;;;16.74;nan
12146;BME280;6136;47.032;15.398;2023-07-02T03:46:32;96829.94;;;16.77;nan
12146;BME280;6136;47.032;15.398;2023-07-02T03:49:01;96844.53;;;16.83;nan
12146;BME280;6136;47.032;15.398;2023-07-02T03:51:30;96845.09;;;16.86;nan
12146;BME280;6136;47.032;15.398;2023-07-02T03:53:59;96841.81;;;16.92;nan
12146;BME280;6136;47.032;15.398;2023-07-02T03:56:27;96846.38;;;17.00;nan
12146;BME280;6136;47.032;15.398;2023-07-02T03:58:55;96841.59;;;17.03;nan
12146;BME280;6136;47.032;15.398;2023-07-02T04:01:24;96839.50;;;17.15;nan
12146;BME280;6136;47.032;15.398;2023-07-02T04:03:53;96844.78;;;17.25;nan
12146;BME280;6136;47.032;15.398;2023-07-02T04:06:21;96842.34;;;17.31;nan
12146;BME280;6136;47.032;15.398;2023-07-02T04:08:49;96846.06;;;17.38;nan
12146;BME280;6136;47.032;15.398;2023-07-02T04:11:19;96856.00;;;17.46;nan
12146;BME280;6136;47.032;15.398;2023-07-02T04:13:47;96843.97;;;17.50;nan
12146;BME280;6136;47.032;15.398;2023-07-02T04:16:15;96856.59;;;17.58;nan
12146;BME280;6136;47.032;15.398;2023-07-02T04:18:43;96842.69;;;17.54;nan
12146;BME280;6136;47.032;15.398;2023-07-02T04:21:11;96864.72;;;17.66;nan
12146;BME280;6136;47.032;15.398;2023-07-02T04:23:39;96856.69;;;17.66;nan
12146;BME280;6136;47.032;15.398;2023-07-02T04:26:08;96862.03;;;17.66;nan
12146;BME280;6136;47.032;15.398;2023-07-02T04:28:49;96870.78;;;17.68;nan
12146;BME280;6136;47.032;15.398;2023-07-02T04:31:17;96869.78;;;17.69;nan
12146;BME280;6136;47.032;15.398;2023-07-02T04:33:46;96872.81;;;17.74;nan
12146;BME280;6136;47.032;15.398;2023-07-02T04:36:14;96876.19;;;17.76;nan
12146;BME280;6136;47.032;15.398;2023-07-02T04:38:42;96878.94;;;17.84;nan
12146;BME280;6136;47.032;15.398;2023-07-02T04:41:10;96878.59;;;17.87;nan
12146;BME280;6136;47.032;15.398;2023-07-02T04:43:38;96881.69;;;17.92;nan
12146;BME280;6136;47.032;15.398;2023-07-02T04:46:08;96876.31;;;17.92;nan
12146;BME280;6136;47.032;15.398;2023-07-02T04:48:39;96875.13;;;17.95;nan
12146;BME280;6136;47.032;15.398;2023-07-02T04:51:07;96884.72;;;17.97;nan
12146;BME280;6136;47.032;15.398;2023-07-02T04:53:35;96884.28;;;18.10;nan
12146;BME280;6136;47.032;15.398;2023-07-02T04:56:04;96884.13;;;18.11;nan
12146;BME280;6136;47.032;15.398;2023-07-02T04:58:34;96893.56;;;18.15;nan
12146;BME280;6136;47.032;15.398;2023-07-02T05:01:02;96889.06;;;18.24;nan
12146;BME280;6136;47.032;15.398;2023-07-02T05:03:33;96892.28;;;18.28;nan
12146;BME280;6136;47.032;15.398;2023-07-02T05:06:01;96900.38;;;18.36;nan
12146;BME280;6136;47.032;15.398;2023-07-02T05:08:30;96895.50;;;18.39;nan
12146;BME280;6136;47.032;15.398;2023-07-02T05:10:58;96890.34;;;18.46;nan
12146;BME280;6136;47.032;15.398;2023-07-02T05:13:26;96903.63;;;18.55;nan
12146;BME280;6136;47.032;15.398;2023-07-02T05:15:54;96893.06;;;18.54;nan
12146;BME280;6136;47.032;15.398;2023-07-02T05:18:22;96905.88;;;18.68;nan
12146;BME280;6136;47.032;15.398;2023-07-02T05:20:52;96908.13;;;18.73;nan
12146;BME280;6136;47.032;15.398;2023-07-02T05:23:20;96899.91;;;18.74;nan
12146;BME280;6136;47.032;15.398;2023-07-02T05:25:48;96906.31;;;18.81;nan
12146;BME280;6136;47.032;15.398;2023-07-02T05:28:16;96914.56;;;18.96;nan
12146;BME280;6136;47.032;15.398;2023-07-02T05:30:44;96913.06;;;19.02;nan
12146;BME280;6136;47.032;15.398;2023-07-02T05:33:13;96919.13;;;19.04;nan
12146;BME280;6136;47.032;15.398;2023-07-02T05:35:42;96920.47;;;19.08;nan
12146;BME280;6136;47.032;15.398;2023-07-02T05:38:11;96915.97;;;19.16;nan
12146;BME280;6136;47.032;15.398;2023-07-02T05:40:39;96923.00;;;19.17;nan
12146;BME280;6136;47.032;15.398;2023-07-02T05:43:07;96926.22;;;19.29;nan
12146;BME280;6136;47.032;15.398;2023-07-02T05:45:35;96918.84;;;19.39;nan
12146;BME280;6136;47.032;15.398;2023-07-02T05:48:04;96928.94;;;19.45;nan
12146;BME280;6136;47.032;15.398;2023-07-02T05:50:32;96920.59;;;19.48;nan
12146;BME280;6136;47.032;15.398;2023-07-02T05:53:00;96928.00;;;19.62;nan
12146;BME280;6136;47.032;15.398;2023-07-02T05:55:30;96931.00;;;19.67;nan
12146;BME280;6136;47.032;15.398;2023-07-02T05:57:58;96936.72;;;19.72;nan
12146;BME280;6136;47.032;15.398;2023-07-02T06:00:28;96936.69;;;19.64;nan
12146;BME280;6136;47.032;15.398;2023-07-02T06:02:57;96935.69;;;19.73;nan
12146;BME280;6136;47.032;15.398;2023-07-02T06:05:25;96933.69;;;19.75;nan
12146;BME280;6136;47.032;15.398;2023-07-02T06:07:53;96936.41;;;19.92;nan
12146;BME280;6136;47.032;15.398;2023-07-02T06:10:21;96936.56;;;20.06;nan
12146;BME280;6136;47.032;15.398;2023-07-02T06:12:51;96931.31;;;20.13;nan
12146;BME280;6136;47.032;15.398;2023-07-02T06:15:19;96939.03;;;20.24;nan
12146;BME280;6136;47.032;15.398;2023-07-02T06:17:47;96947.44;;;20.29;nan
12146;BME280;6136;47.032;15.398;2023-07-02T06:20:16;96946.44;;;20.38;nan
12146;BME280;6136;47.032;15.398;2023-07-02T06:22:44;96947.28;;;20.39;nan
12146;BME280;6136;47.032;15.398;2023-07-02T06:25:13;96949.66;;;20.34;nan
12146;BME280;6136;47.032;15.398;2023-07-02T06:27:41;96955.19;;;20.40;nan
12146;BME280;6136;47.032;15.398;2023-07-02T06:30:11;96958.22;;;20.37;nan
12146;BME280;6136;47.032;15.398;2023-07-02T06:32:39;96956.53;;;20.44;nan
12146;BME280;6136;47.032;15.398;2023-07-02T06:35:08;96954.00;;;20.43;nan
12146;BME280;6136;47.032;15.398;2023-07-02T06:37:36;96954.50;;;20.38;nan
12146;BME280;6136;47.032;15.398;2023-07-02T06:40:06;96957.19;;;20.46;nan
12146;BME280;6136;47.032;15.398;2023-07-02T06:42:35;96958.03;;;20.47;nan
12146;BME280;6136;47.032;15.398;2023-07-02T06:45:04;96959.88;;;20.46;nan
12146;BME280;6136;47.032;15.398;2023-07-02T06:47:34;96955.47;;;20.53;nan
12146;BME280;6136;47.032;15.398;2023-07-02T06:50:02;96956.81;;;20.66;nan
12146;BME280;6136;47.032;15.398;2023-07-02T06:52:31;96954.75;;;20.76;nan
12146;BME280;6136;47.032;15.398;2023-07-02T06:54:59;96956.41;;;20.85;nan
12146;BME280;6136;47.032;15.398;2023-07-02T06:57:27;96963.69;;;21.15;nan
12146;BME280;6136;47.032;15.398;2023-07-02T06:59:57;96967.47;;;21.37;nan
12146;BME280;6136;47.032;15.398;2023-07-02T07:02:27;96965.53;;;21.54;nan
12146;BME280;6136;47.032;15.398;2023-07-02T07:04:56;96976.44;;;21.83;nan
12146;BME280;6136;47.032;15.398;2023-07-02T07:07:25;96978.16;;;22.07;nan
12146;BME280;6136;47.032;15.398;2023-07-02T07:09:53;96976.09;;;22.09;nan
12146;BME280;6136;47.032;15.398;2023-07-02T07:12:21;96968.75;;;22.18;nan
12146;BME280;6136;47.032;15.398;2023-07-02T07:14:49;96973.88;;;22.50;nan
12146;BME280;6136;47.032;15.398;2023-07-02T07:17:17;96969.59;;;22.70;nan
12146;BME280;6136;47.032;15.398;2023-07-02T07:19:45;96975.50;;;22.89;nan
12146;BME280;6136;47.032;15.398;2023-07-02T07:22:15;96983.97;;;23.15;nan
12146;BME280;6136;47.032;15.398;2023-07-02T07:24:43;96979.34;;;23.45;nan
12146;BME280;6136;47.032;15.398;2023-07-02T07:27:11;96976.75;;;23.73;nan
12146;BME280;6136;47.032;15.398;2023-07-02T07:29:39;96986.56;;;23.95;nan
12146;BME280;6136;47.032;15.398;2023-07-02T07:32:08;96971.22;;;24.02;nan
12146;BME280;6136;47.032;15.398;2023-07-02T07:34:36;96982.97;;;24.09;nan
12146;BME280;6136;47.032;15.398;2023-07-02T07:37:05;96982.72;;;24.25;nan
12146;BME280;6136;47.032;15.398;2023-07-02T07:39:35;96985.16;;;24.42;nan
12146;BME280;6136;47.032;15.398;2023-07-02T07:42:03;96971.63;;;24.42;nan
12146;BME280;6136;47.032;15.398;2023-07-02T07:44:31;96980.50;;;24.57;nan
12146;BME280;6136;47.032;15.398;2023-07-02T07:46:59;96982.91;;;24.45;nan
12146;BME280;6136;47.032;15.398;2023-07-02T07:49:28;96980.50;;;24.57;nan
12146;BME280;6136;47.032;15.398;2023-07-02T07:51:56;96972.22;;;24.65;nan
12146;BME280;6136;47.032;15.398;2023-07-02T07:54:24;96978.81;;;24.56;nan
12146;BME280;6136;47.032;15.398;2023-07-02T07:56:53;96973.38;;;24.56;nan
12146;BME280;6136;47.032;15.398;2023-07-02T07:59:21;96967.84;;;24.98;nan
12146;BME280;6136;47.032;15.398;2023-07-02T08:01:50;96978.06;;;25.37;nan
12146;BME280;6136;47.032;15.398;2023-07-02T08:04:18;96969.28;;;25.96;nan
12146;BME280;6136;47.032;15.398;2023-07-02T08:06:46;96968.47;;;26.09;nan
12146;BME280;6136;47.032;15.398;2023-07-02T08:09:14;96961.00;;;26.31;nan
12146;BME280;6136;47.032;15.398;2023-07-02T08:11:43;96962.44;;;26.40;nan
12146;BME280;6136;47.032;15.398;2023-07-02T08:14:12;96969.94;;;26.24;nan
12146;BME280;6136;47.032;15.398;2023-07-02T08:16:41;96974.16;;;26.27;nan
12146;BME280;6136;47.032;15.398;2023-07-02T08:19:09;96965.31;;;25.85;nan
12146;BME280;6136;47.032;15.398;2023-07-02T08:21:37;96973.44;;;25.31;nan
12146;BME280;6136;47.032;15.398;2023-07-02T08:24:05;96979.25;;;25.28;nan
12146;BME280;6136;47.032;15.398;2023-07-02T08:26:34;96983.47;;;25.78;nan
12146;BME280;6136;47.032;15.398;2023-07-02T08:29:03;96974.91;;;25.95;nan
12146;BME280;6136;47.032;15.398;2023-07-02T08:31:33;96990.63;;;26.06;nan
12146;BME280;6136;47.032;15.398;2023-07-02T08:34:02;96987.94;;;26.25;nan
12146;BME280;6136;47.032;15.398;2023-07-02T08:36:30;96967.47;;;26.30;nan
12146;BME280;6136;47.032;15.398;2023-07-02T08:38:58;96965.38;;;26.51;nan
12146;BME280;6136;47.032;15.398;2023-07-02T08:41:27;96968.50;;;26.81;nan
12146;BME280;6136;47.032;15.398;2023-07-02T08:43:56;96958.91;;;27.43;nan
12146;BME280;6136;47.032;15.398;2023-07-02T08:46:26;96953.25;;;27.89;nan
12146;BME280;6136;47.032;15.398;2023-07-02T08:48:56;96946.16;;;28.13;nan
12146;BME280;6136;47.032;15.398;2023-07-02T08:51:24;96944.28;;;27.82;nan
12146;BME280;6136;47.032;15.398;2023-07-02T08:53:52;96952.59;;;27.56;nan
12146;BME280;6136;47.032;15.398;2023-07-02T08:56:20;96954.69;;;27.54;nan
12146;BME280;6136;47.032;15.398;2023-07-02T08:58:48;96956.31;;;27.68;nan
12146;BME280;6136;47.032;15.398;2023-07-02T09:01:16;96948.19;;;27.93;nan
12146;BME280;6136;47.032;15.398;2023-07-02T09:03:45;96949.38;;;28.03;nan
12146;BME280;6136;47.032;15.398;2023-07-02T09:06:17;96944.19;;;28.27;nan
12146;BME280;6136;47.032;15.398;2023-07-02T09:08:45;96951.22;;;28.41;nan
12146;BME280;6136;47.032;15.398;2023-07-02T09:11:15;96945.75;;;28.66;nan
12146;BME280;6136;47.032;15.398;2023-07-02T09:13:48;96952.94;;;28.85;nan
12146;BME280;6136;47.032;15.398;2023-07-02T09:16:24;96949.91;;;28.18;nan
12146;BME280;6136;47.032;15.398;2023-07-02T09:18:56;96951.75;;;28.25;nan
12146;BME280;6136;47.032;15.398;2023-07-02T09:21:27;96941.69;;;28.25;nan
12146;BME280;6136;47.032;15.398;2023-07-02T09:23:56;96961.81;;;28.24;nan
12146;BME280;6136;47.032;15.398;2023-07-02T09:26:24;96947.84;;;28.45;nan
12146;BME280;6136;47.032;15.398;2023-07-02T09:29:00;96946.13;;;28.69;nan
12146;BME280;6136;47.032;15.398;2023-07-02T09:31:28;96955.44;;;29.23;nan
12146;BME280;6136;47.032;15.398;2023-07-02T09:34:01;96944.38;;;29.00;nan
12146;BME280;6136;47.032;15.398;2023-07-02T09:36:31;96954.22;;;29.01;nan
12146;BME280;6136;47.032;15.398;2023-07-02T09:38:59;96952.16;;;28.53;nan
12146;BME280;6136;47.032;15.398;2023-07-02T09:41:28;96943.94;;;28.60;nan
12146;BME280;6136;47.032;15.398;2023-07-02T09:43:56;96953.56;;;28.37;nan
12146;BME280;6136;47.032;15.398;2023-07-02T09:46:25;96942.63;;;28.62;nan
12146;BME280;6136;47.032;15.398;2023-07-02T09:48:53;96952.25;;;28.65;nan
12146;BME280;6136;47.032;15.398;2023-07-02T09:51:22;96955.38;;;29.11;nan
12146;BME280;6136;47.032;15.398;2023-07-02T09:53:52;96954.56;;;29.11;nan
12146;BME280;6136;47.032;15.398;2023-07-02T09:56:20;96955.69;;;29.03;nan
12146;BME280;6136;47.032;15.398;2023-07-02T09:58:49;96949.06;;;29.29;nan
12146;BME280;6136;47.032;15.398;2023-07-02T10:01:18;96957.22;;;29.84;nan
12146;BME280;6136;47.032;15.398;2023-07-02T10:03:46;96958.91;;;29.85;nan
12146;BME280;6136;47.032;15.398;2023-07-02T10:06:14;96965.63;;;29.82;nan
12146;BME280;6136;47.032;15.398;2023-07-02T10:08:54;96962.47;;;28.69;nan
12146;BME280;6136;47.032;15.398;2023-07-02T10:11:33;96959.81;;;28.63;nan
12146;BME280;6136;47.032;15.398;2023-07-02T10:14:02;96962.25;;;28.52;nan
12146;BME280;6136;47.032;15.398;2023-07-02T10:16:30;96954.66;;;28.30;nan
12146;BME280;6136;47.032;15.398;2023-07-02T10:19:08;96960.19;;;27.85;nan
12146;BME280;6136;47.032;15.398;2023-07-02T10:21:36;96960.88;;;28.05;nan
12146;BME280;6136;47.032;15.398;2023-07-02T10:24:14;96966.47;;;28.17;nan
12146;BME280;6136;47.032;15.398;2023-07-02T10:26:53;96959.78;;;28.13;nan
12146;BME280;6136;47.032;15.398;2023-07-02T10:29:22;96972.03;;;28.35;nan
12146;BME280;6136;47.032;15.398;2023-07-02T10:31:52;96967.34;;;28.11;nan
12146;BME280;6136;47.032;15.398;2023-07-02T10:34:31;96971.75;;;27.74;nan
12146;BME280;6136;47.032;15.398;2023-07-02T10:37:00;96968.88;;;27.69;nan
12146;BME280;6136;47.032;15.398;2023-07-02T10:39:31;96977.69;;;27.58;nan
12146;BME280;6136;47.032;15.398;2023-07-02T10:42:06;96963.75;;;27.79;nan
12146;BME280;6136;47.032;15.398;2023-07-02T10:44:45;96963.47;;;27.62;nan
12146;BME280;6136;47.032;15.398;2023-07-02T10:47:14;96965.97;;;27.57;nan
12146;BME280;6136;47.032;15.398;2023-07-02T10:49:42;96958.41;;;27.66;nan
12146;BME280;6136;47.032;15.398;2023-07-02T10:52:10;96969.22;;;28.17;nan
12146;BME280;6136;47.032;15.398;2023-07-02T10:54:41;96960.00;;;28.68;nan
12146;BME280;6136;47.032;15.398;2023-07-02T10:57:12;96963.44;;;28.32;nan
12146;BME280;6136;47.032;15.398;2023-07-02T10:59:41;96958.09;;;28.18;nan
12146;BME280;6136;47.032;15.398;2023-07-02T11:02:10;96951.50;;;28.82;nan
12146;BME280;6136;47.032;15.398;2023-07-02T11:04:38;96945.59;;;29.04;nan
12146;BME280;6136;47.032;15.398;2023-07-02T11:07:06;96956.66;;;28.66;nan
12146;BME280;6136;47.032;15.398;2023-07-02T11:09:35;96946.53;;;28.48;nan
12146;BME280;6136;47.032;15.398;2023-07-02T11:12:05;96949.19;;;28.54;nan
12146;BME280;6136;47.032;15.398;2023-07-02T11:14:35;96950.41;;;28.83;nan
12146;BME280;6136;47.032;15.398;2023-07-02T11:17:05;96952.88;;;29.10;nan
12146;BME280;6136;47.032;15.398;2023-07-02T11:19:34;96952.44;;;29.97;nan
12146;BME280;6136;47.032;15.398;2023-07-02T11:22:03;96958.59;;;30.34;nan
12146;BME280;6136;47.032;15.398;2023-07-02T11:24:32;96950.31;;;30.76;nan
12146;BME280;6136;47.032;15.398;2023-07-02T11:27:01;96957.41;;;30.30;nan
12146;BME280;6136;47.032;15.398;2023-07-02T11:29:32;96948.19;;;29.83;nan
12146;BME280;6136;47.032;15.398;2023-07-02T11:32:10;96951.97;;;29.52;nan
12146;BME280;6136;47.032;15.398;2023-07-02T11:34:39;96943.84;;;29.09;nan
12146;BME280;6136;47.032;15.398;2023-07-02T11:37:07;96956.06;;;28.88;nan
12146;BME280;6136;47.032;15.398;2023-07-02T11:39:36;96961.50;;;28.88;nan
12146;BME280;6136;47.032;15.398;2023-07-02T11:42:04;96945.75;;;28.41;nan
12146;BME280;6136;47.032;15.398;2023-07-02T11:44:34;96941.34;;;28.40;nan
12146;BME280;6136;47.032;15.398;2023-07-02T11:47:02;96945.06;;;28.52;nan
12146;BME280;6136;47.032;15.398;2023-07-02T11:49:32;96951.22;;;28.41;nan
12146;BME280;6136;47.032;15.398;2023-07-02T11:52:00;96952.56;;;28.81;nan
12146;BME280;6136;47.032;15.398;2023-07-02T11:54:28;96949.91;;;29.29;nan
12146;BME280;6136;47.032;15.398;2023-07-02T11:56:58;96954.63;;;29.89;nan
12146;BME280;6136;47.032;15.398;2023-07-02T11:59:26;96961.53;;;30.33;nan
12146;BME280;6136;47.032;15.398;2023-07-02T12:01:55;96948.38;;;30.41;nan
12146;BME280;6136;47.032;15.398;2023-07-02T12:04:23;96947.41;;;30.47;nan
12146;BME280;6136;47.032;15.398;2023-07-02T12:06:51;96952.19;;;29.99;nan
12146;BME280;6136;47.032;15.398;2023-07-02T12:09:20;96945.63;;;30.41;nan
12146;BME280;6136;47.032;15.398;2023-07-02T12:11:48;96946.41;;;30.72;nan
12146;BME280;6136;47.032;15.398;2023-07-02T12:14:16;96944.97;;;30.81;nan
12146;BME280;6136;47.032;15.398;2023-07-02T12:16:44;96951.28;;;30.93;nan
12146;BME280;6136;47.032;15.398;2023-07-02T12:19:14;96951.63;;;30.62;nan
12146;BME280;6136;47.032;15.398;2023-07-02T12:21:42;96957.41;;;29.70;nan
12146;BME280;6136;47.032;15.398;2023-07-02T12:24:10;96958.72;;;29.50;nan
12146;BME280;6136;47.032;15.398;2023-07-02T12:26:39;96951.22;;;29.63;nan
12146;BME280;6136;47.032;15.398;2023-07-02T12:29:07;96948.56;;;29.39;nan
12146;BME280;6136;47.032;15.398;2023-07-02T12:31:35;96952.75;;;29.41;nan
12146;BME280;6136;47.032;15.398;2023-07-02T12:34:04;96958.34;;;29.46;nan
12146;BME280;6136;47.032;15.398;2023-07-02T12:36:33;96956.91;;;29.44;nan
12146;BME280;6136;47.032;15.398;2023-07-02T12:39:01;96954.63;;;29.22;nan
12146;BME280;6136;47.032;15.398;2023-07-02T12:41:29;96961.16;;;29.03;nan
12146;BME280;6136;47.032;15.398;2023-07-02T12:43:58;96959.84;;;28.87;nan
12146;BME280;6136;47.032;15.398;2023-07-02T12:46:26;96969.19;;;28.73;nan
12146;BME280;6136;47.032;15.398;2023-07-02T12:48:54;96974.22;;;28.20;nan
12146;BME280;6136;47.032;15.398;2023-07-02T12:51:22;96976.28;;;27.87;nan
12146;BME280;6136;47.032;15.398;2023-07-02T12:53:52;96972.00;;;27.66;nan
12146;BME280;6136;47.032;15.398;2023-07-02T12:56:20;96965.41;;;27.35;nan
12146;BME280;6136;47.032;15.398;2023-07-02T12:58:48;96969.00;;;27.29;nan
12146;BME280;6136;47.032;15.398;2023-07-02T13:01:18;96970.56;;;26.99;nan
12146;BME280;6136;47.032;15.398;2023-07-02T13:03:48;96971.81;;;26.83;nan
12146;BME280;6136;47.032;15.398;2023-07-02T13:06:17;96967.44;;;26.62;nan
12146;BME280;6136;47.032;15.398;2023-07-02T13:08:46;96965.31;;;26.97;nan
12146;BME280;6136;47.032;15.398;2023-07-02T13:11:16;96963.34;;;27.31;nan
12146;BME280;6136;47.032;15.398;2023-07-02T13:13:45;96958.06;;;27.49;nan
12146;BME280;6136;47.032;15.398;2023-07-02T13:16:15;96972.81;;;27.73;nan
12146;BME280;6136;47.032;15.398;2023-07-02T13:18:44;96970.97;;;27.67;nan
12146;BME280;6136;47.032;15.398;2023-07-02T13:21:13;96966.81;;;27.58;nan
12146;BME280;6136;47.032;15.398;2023-07-02T13:23:44;96966.91;;;27.31;nan
12146;BME280;6136;47.032;15.398;2023-07-02T13:26:13;96973.50;;;27.62;nan
12146;BME280;6136;47.032;15.398;2023-07-02T13:28:43;96961.91;;;27.73;nan
12146;BME280;6136;47.032;15.398;2023-07-02T13:31:15;96962.03;;;27.91;nan